Impacts METAR Board
IDs:

KORD - Chicago/O'Hare Intl, IL, US

Updated at: 1100 UTC 23 May 2018
Potential Impact None Slight Moderate High
Time 22/23Z 23/00Z 23/01Z 23/02Z 23/03Z 23/04Z 23/05Z 23/06Z 23/07Z 23/08Z 23/09Z 23/10Z 23/11Z
Temp64 65 62 58 57 56 54 54 53 53 53 52 53
Dewpt55 54 53 51 51 50 51 51 50 50 50 50 50
Altim30.04 30.04 30.05 30.06 30.09 30.09 30.09 30.10 30.10 30.10 30.12 30.14 30.16
VIS10 10 10 10 10 10 8 8 8 7 7 6 4
CIG31 -- -- -- -- -- -- -- -- -- -- 250 250
CoverOVCSCTFEWFEWFEWCLRCLRCLRFEWSCTSCTBKNBKN
FltCatVFRVFRVFRVFRVFRVFRVFRVFRVFRVFRVFRVFRMVFR
WX----------------------BRBR
WDir110100901101000019000000
WSpd5 4 6 4 4 0 0 3 0 0 0 0 0
WGst-- -- -- -- -- -- -- -- -- -- -- -- --
Raw hourly METARs
KORD 222251Z 11005KT 10SM OVC031 18/13 A3004 RMK AO2 SLP173 T01780128
KORD 222351Z 10004KT 10SM FEW030 SCT250 18/12 A3004 RMK AO2 SLP172 T01830122 10189 20161 58000
KORD 230051Z 09006KT 10SM FEW030 FEW250 17/12 A3005 RMK AO2 SLP176 T01670117
KORD 230151Z 11004KT 10SM FEW030 FEW250 14/11 A3006 RMK AO2 SLP180 T01440106
KORD 230251Z 10004KT 10SM FEW030 FEW250 14/11 A3009 RMK AO2 SLP187 T01390106 53015
KORD 230351Z 00000KT 10SM CLR 13/10 A3009 RMK AO2 SLP189 T01330100
KORD 230451Z 00000KT 8SM CLR 12/11 A3009 RMK AO2 SLP190 T01220106
KORD 230551Z 19003KT 8SM CLR 12/11 A3010 RMK AO2 SLP192 T01220106 10183 20122 401940122 53005
KORD 230651Z 00000KT 8SM FEW250 12/10 A3010 RMK AO2 SLP192 T01170100
KORD 230751Z 00000KT 7SM SCT250 12/10 A3010 RMK AO2 SLP193 T01170100
KORD 230851Z 00000KT 7SM SCT250 12/10 A3012 RMK AO2 SLP199 T01170100 53006
KORD 230951Z 00000KT 6SM BR BKN250 11/10 A3014 RMK AO2 SLP204 T01110100
KORD 231051Z 00000KT 4SM BR BKN250 12/10 A3016 RMK AO2 SLP212 T01170100



Page loaded:  11:13 UTC  |   04:13 AM Pacific  |   05:13 AM Mountain  |   06:13 AM Central  |   07:13 AM Eastern

 

ADVISORIES

FORECASTS

FORECASTS

OBSERVATIONS

USER TOOLS

ABOUT US